Time;durP1;ratioP1;P1;durP2;ratioP2;P2;SDS_P1;SDS_P2;PMS_P1;PMS_P2;Temp;Humidity;BMP_temperature;BMP_pressure;BME280_temperature;BME280_humidity;BME280_pressure;Samples;Min_cycle;Max_cycle;Signal;HPM_P1;HPM_P2
2022/11/22 00:01:32;;;;;;;7.38;3.70;;;;;;;4.37;100.00;96881.03;4895017;29;20055;-78
2022/11/22 00:04:01;;;;;;;3.93;3.00;;;;;;;4.58;100.00;96916.22;4913993;29;20051;-79
2022/11/22 00:07:02;;;;;;;4.05;2.88;;;;;;;4.76;100.00;96946.25;4914185;29;20440;-79
2022/11/22 00:09:31;;;;;;;4.97;3.45;;;;;;;4.48;100.00;96906.13;4882018;29;20106;-79
2022/11/22 00:12:16;;;;;;;7.45;4.28;;;;;;;4.29;100.00;96866.44;4878845;29;20046;-78
2022/11/22 00:14:55;;;;;;;8.00;4.47;;;;;;;4.65;100.00;96908.81;4882858;29;20465;-78
2022/11/22 00:17:20;;;;;;;9.60;3.78;;;;;;;4.66;100.00;96906.09;4914117;29;20048;-79
2022/11/22 00:20:22;;;;;;;6.47;4.10;;;;;;;4.56;100.00;96883.63;4898590;29;20031;-77
2022/11/22 00:23:01;;;;;;;7.90;4.78;;;;;;;4.82;100.00;96904.41;4896439;29;20028;-79
2022/11/22 00:25:36;;;;;;;6.13;3.67;;;;;;;4.59;100.00;96846.41;4901457;29;20047;-78
2022/11/22 00:28:22;;;;;;;6.18;4.00;;;;;;;4.60;100.00;96800.47;4915877;29;20043;-79
2022/11/22 00:31:22;;;;;;;6.75;4.13;;;;;;;4.68;100.00;96803.56;4904682;29;20040;-78
2022/11/22 00:33:50;;;;;;;8.35;4.88;;;;;;;5.00;100.00;96860.22;4917770;29;20028;-79
2022/11/22 00:37:06;;;;;;;12.43;6.78;;;;;;;4.69;100.00;96820.31;4906745;29;20071;-80
2022/11/22 00:39:32;;;;;;;8.68;5.07;;;;;;;4.97;100.00;96878.94;4886590;29;20048;-79
2022/11/22 00:41:58;;;;;;;7.97;4.80;;;;;;;5.04;100.00;96896.25;4890800;29;20519;-79
2022/11/22 00:44:23;;;;;;;8.18;4.47;;;;;;;5.10;100.00;96918.94;4894927;29;20052;-77
2022/11/22 00:46:49;;;;;;;7.50;4.80;;;;;;;5.10;100.00;96905.69;4891862;29;20042;-79
2022/11/22 00:49:14;;;;;;;7.68;4.82;;;;;;;4.97;100.00;96904.56;4878946;29;20525;-78
2022/11/22 00:51:40;;;;;;;7.68;4.47;;;;;;;4.94;100.00;96900.28;4887335;29;20119;-79
2022/11/22 00:54:06;;;;;;;10.35;4.97;;;;;;;4.99;100.00;96923.88;4882364;29;20135;-79
2022/11/22 00:56:32;;;;;;;8.05;4.53;;;;;;;4.95;100.00;96901.16;4893670;29;20043;-78
2022/11/22 00:58:58;;;;;;;7.75;4.22;;;;;;;5.05;100.00;96915.63;4880786;29;20576;-78
2022/11/22 01:01:23;;;;;;;5.63;3.40;;;;;;;5.12;100.00;96895.84;4897914;29;20504;-79
2022/11/22 01:03:49;;;;;;;5.30;3.17;;;;;;;5.30;100.00;96871.03;4892131;29;20048;-78
2022/11/22 01:06:14;;;;;;;4.63;3.00;;;;;;;5.41;100.00;96864.22;4863481;29;20041;-78
2022/11/22 01:08:40;;;;;;;5.20;3.20;;;;;;;5.72;100.00;96866.09;4877887;29;20123;-79
2022/11/22 01:11:05;;;;;;;5.38;3.17;;;;;;;5.84;100.00;96856.66;4902356;29;20043;-79
2022/11/22 01:13:31;;;;;;;3.92;2.60;;;;;;;5.95;100.00;96855.16;4903676;29;20054;-79
2022/11/22 01:16:01;;;;;;;4.40;2.63;;;;;;;6.00;100.00;96817.72;4885515;29;20055;-79
2022/11/22 01:18:27;;;;;;;7.30;3.17;;;;;;;6.14;100.00;96817.84;4915335;29;20111;-79
2022/11/22 01:20:53;;;;;;;3.15;2.22;;;;;;;6.33;100.00;96817.66;4881927;29;20130;-78
2022/11/22 01:23:18;;;;;;;3.47;2.05;;;;;;;6.65;100.00;96834.38;4890368;29;20024;-79
2022/11/22 01:25:44;;;;;;;5.53;3.00;;;;;;;6.58;100.00;96809.13;4929375;29;20408;-79
2022/11/22 01:28:10;;;;;;;4.75;2.58;;;;;;;6.50;100.00;96794.47;4917093;29;20495;-77
2022/11/22 01:30:35;;;;;;;5.28;2.95;;;;;;;6.60;100.00;96808.09;4904302;29;20088;-78
2022/11/22 01:33:01;;;;;;;5.50;2.90;;;;;;;6.59;100.00;96795.75;4882205;29;20040;-79
2022/11/22 01:35:26;;;;;;;3.72;2.75;;;;;;;6.42;100.00;96775.50;4909905;29;20047;-79
2022/11/22 01:37:52;;;;;;;4.57;2.90;;;;;;;6.49;100.00;96797.25;4887063;29;20416;-79
2022/11/22 01:40:18;;;;;;;5.53;3.42;;;;;;;6.27;100.00;96773.72;4905820;29;20114;-79
2022/11/22 01:42:49;;;;;;;6.78;3.17;;;;;;;6.36;100.00;96797.09;4892223;29;20043;-78
2022/11/22 01:45:30;;;;;;;4.85;3.10;;;;;;;6.32;100.00;96798.19;4899398;29;20445;-78
2022/11/22 01:48:06;;;;;;;5.75;3.50;;;;;;;6.26;100.00;96795.03;4898012;29;20043;-78
2022/11/22 01:50:34;;;;;;;4.25;2.95;;;;;;;6.19;100.00;96785.69;4882379;29;20609;-79
2022/11/22 01:53:03;;;;;;;5.78;2.80;;;;;;;6.19;100.00;96786.56;4882622;29;20523;-78
2022/11/22 01:55:29;;;;;;;4.50;2.90;;;;;;;6.18;100.00;96800.81;4896684;29;20027;-77
2022/11/22 01:57:55;;;;;;;5.72;2.97;;;;;;;6.04;100.00;96775.94;4902630;29;20054;-79
2022/11/22 02:00:21;;;;;;;6.85;3.80;;;;;;;5.94;100.00;96781.78;4897615;29;20055;-79
2022/11/22 02:02:52;;;;;;;4.88;2.92;;;;;;;5.94;100.00;96791.53;4887641;29;20032;-78
2022/11/22 02:05:21;;;;;;;7.10;3.50;;;;;;;5.84;100.00;96779.72;4916328;29;20035;-79
2022/11/22 02:07:59;;;;;;;6.75;3.67;;;;;;;5.82;100.00;96787.72;4916578;29;20031;-78
2022/11/22 02:10:29;;;;;;;6.22;3.65;;;;;;;5.65;100.00;96777.22;4898534;29;20051;-80
2022/11/22 02:12:57;;;;;;;5.95;3.65;;;;;;;5.67;100.00;96801.84;4896219;29;20039;-79
2022/11/22 02:15:22;;;;;;;5.45;3.38;;;;;;;5.56;100.00;96804.25;4882133;29;20039;-78
2022/11/22 02:17:48;;;;;;;11.80;3.58;;;;;;;5.42;100.00;96807.63;4884095;29;20028;-79
2022/11/22 02:20:16;;;;;;;7.30;4.32;;;;;;;5.06;100.00;96782.19;4908881;29;20035;-78
2022/11/22 02:22:50;;;;;;;4.88;3.20;;;;;;;5.11;100.00;96814.59;4922974;29;20547;-78
2022/11/22 02:25:27;;;;;;;6.57;3.13;;;;;;;5.06;100.00;96814.00;4914685;29;20063;-78
2022/11/22 02:27:52;;;;;;;5.70;3.00;;;;;;;5.01;100.00;96797.50;4897576;29;20031;-79
2022/11/22 02:30:18;;;;;;;4.57;3.22;;;;;;;5.05;100.00;96806.97;4896651;29;20024;-79
2022/11/22 02:32:44;;;;;;;5.72;3.40;;;;;;;5.06;100.00;96808.69;4909672;29;20067;-79
2022/11/22 02:35:18;;;;;;;5.50;3.45;;;;;;;5.05;100.00;96815.78;4910511;29;20095;-79
2022/11/22 02:37:44;;;;;;;8.35;3.88;;;;;;;4.92;100.00;96791.72;4901025;29;20028;-78
2022/11/22 02:40:13;;;;;;;6.72;3.70;;;;;;;5.05;100.00;96826.38;4916371;29;20087;-77
2022/11/22 02:42:39;;;;;;;15.43;7.43;;;;;;;4.95;100.00;96816.38;4884551;29;20092;-80
2022/11/22 02:45:05;;;;;;;8.30;4.38;;;;;;;4.90;100.00;96820.09;4902522;29;20421;-78
2022/11/22 02:47:30;;;;;;;9.00;5.00;;;;;;;4.94;100.00;96826.09;4920234;29;20035;-78
2022/11/22 02:49:56;;;;;;;11.98;5.45;;;;;;;4.91;100.00;96811.22;4894449;29;20480;-79
2022/11/22 02:52:22;;;;;;;10.88;5.47;;;;;;;5.05;100.00;96822.88;4914537;29;20042;-78
2022/11/22 02:54:47;;;;;;;9.63;5.18;;;;;;;5.06;100.00;96808.69;4902837;29;20070;-78
2022/11/22 02:57:13;;;;;;;5.60;3.53;;;;;;;5.02;100.00;96805.34;4904330;29;20448;-79
2022/11/22 02:59:39;;;;;;;6.60;3.88;;;;;;;5.14;100.00;96809.16;4890157;29;20063;-78
2022/11/22 03:02:04;;;;;;;6.68;4.15;;;;;;;5.06;100.00;96792.81;4900595;29;20035;-78
2022/11/22 03:04:30;;;;;;;6.20;4.05;;;;;;;5.13;100.00;96815.41;4893253;29;20036;-79
2022/11/22 03:06:57;;;;;;;6.82;3.90;;;;;;;5.17;100.00;96822.28;4903135;29;20028;-79
2022/11/22 03:09:25;;;;;;;7.63;3.97;;;;;;;5.15;100.00;96827.63;4900855;29;20107;-79
2022/11/22 03:11:51;;;;;;;5.95;3.85;;;;;;;5.19;100.00;96809.78;4900472;29;20028;-80
2022/11/22 03:14:16;;;;;;;8.23;4.15;;;;;;;5.26;100.00;96832.38;4885077;29;20060;-81
2022/11/22 03:16:43;;;;;;;8.02;4.43;;;;;;;5.24;100.00;96834.25;4899047;29;20464;-81
2022/11/22 03:19:09;;;;;;;9.48;4.32;;;;;;;5.22;100.00;96825.53;4919107;29;20040;-81
2022/11/22 03:21:34;;;;;;;9.50;4.97;;;;;;;5.20;100.00;96819.47;4887515;29;20381;-81
2022/11/22 03:24:00;;;;;;;8.57;4.45;;;;;;;5.13;100.00;96818.06;4900045;29;20032;-79
2022/11/22 03:26:25;;;;;;;11.18;5.80;;;;;;;4.96;100.00;96812.75;4898786;29;20075;-80
2022/11/22 03:28:51;;;;;;;10.35;5.38;;;;;;;4.80;100.00;96813.53;4898208;29;20031;-80
2022/11/22 03:31:16;;;;;;;8.98;4.53;;;;;;;4.82;100.00;96824.06;4885138;29;20016;-80
2022/11/22 03:33:42;;;;;;;6.40;3.83;;;;;;;4.81;100.00;96806.47;4890236;29;20034;-81
2022/11/22 03:36:07;;;;;;;5.60;3.30;;;;;;;4.86;100.00;96807.94;4901548;29;20028;-81
2022/11/22 03:38:34;;;;;;;6.00;3.47;;;;;;;4.83;100.00;96794.84;4889069;29;20035;-80
2022/11/22 03:41:00;;;;;;;7.10;3.70;;;;;;;4.70;100.00;96780.53;4892946;29;20393;-79
2022/11/22 03:43:25;;;;;;;7.72;3.72;;;;;;;4.64;100.00;96767.63;4892715;29;20039;-80
2022/11/22 03:46:03;;;;;;;6.93;3.40;;;;;;;4.68;100.00;96786.81;4907173;29;20083;-80
2022/11/22 03:48:29;;;;;;;4.50;3.20;;;;;;;4.58;100.00;96786.47;4899203;29;20035;-80
2022/11/22 03:51:04;;;;;;;7.88;4.30;;;;;;;4.44;100.00;96780.13;4903563;29;20028;-81
2022/11/22 03:53:31;;;;;;;8.10;5.00;;;;;;;4.49;100.00;96794.84;4889137;29;20035;-80
2022/11/22 03:55:56;;;;;;;8.77;5.13;;;;;;;4.42;100.00;96790.81;4914202;29;20027;-80
2022/11/22 03:58:22;;;;;;;9.75;5.00;;;;;;;4.32;100.00;96806.28;4900061;29;20031;-79
2022/11/22 04:00:47;;;;;;;8.07;4.75;;;;;;;4.32;100.00;96821.31;4884364;29;20504;-80
2022/11/22 04:03:13;;;;;;;13.25;5.10;;;;;;;4.27;100.00;96828.63;4901415;29;20054;-79
2022/11/22 04:05:38;;;;;;;9.80;4.82;;;;;;;4.07;100.00;96834.84;4919334;29;20066;-81
2022/11/22 04:08:04;;;;;;;9.55;5.15;;;;;;;3.90;100.00;96836.59;4893354;29;20031;-80
2022/11/22 04:10:29;;;;;;;10.63;4.80;;;;;;;3.90;100.00;96860.41;4911737;29;20031;-83
2022/11/22 04:12:58;;;;;;;13.82;5.80;;;;;;;3.86;100.00;96867.63;4896481;29;20027;-82
2022/11/22 04:15:25;;;;;;;11.65;5.45;;;;;;;3.83;100.00;96876.56;4896484;29;20047;-78
2022/11/22 04:17:51;;;;;;;13.25;5.13;;;;;;;3.79;100.00;96876.75;4918805;29;20030;-78
2022/11/22 04:23:09;;;;;;;19.10;8.82;;;;;;;3.83;100.00;96903.00;4915509;29;20041;-79
2022/11/22 04:25:36;;;;;;;30.52;10.98;;;;;;;3.78;100.00;96907.63;4903023;29;20039;-79
2022/11/22 04:28:03;;;;;;;22.67;9.55;;;;;;;3.77;100.00;96902.41;4914293;29;20040;-86
2022/11/22 04:33:13;;;;;;;19.00;8.20;;;;;;;3.75;100.00;96926.28;4920592;29;20091;-78
2022/11/22 04:35:39;;;;;;;27.42;13.27;;;;;;;3.68;100.00;96927.50;4918130;29;20049;-79
2022/11/22 04:38:05;;;;;;;24.13;9.57;;;;;;;3.65;100.00;96932.94;4893937;29;20032;-79
2022/11/22 04:40:31;;;;;;;19.05;8.70;;;;;;;3.61;100.00;96949.84;4883506;29;20040;-79
2022/11/22 04:45:42;;;;;;;25.02;11.18;;;;;;;3.51;100.00;96967.03;4908334;29;20035;-79
2022/11/22 04:48:09;;;;;;;29.52;12.95;;;;;;;3.46;100.00;96976.94;4891936;29;20024;-79
2022/11/22 04:53:18;;;;;;;31.25;12.63;;;;;;;3.42;100.00;96991.22;4901317;29;20035;-77
2022/11/22 04:55:45;;;;;;;36.95;14.80;;;;;;;3.41;100.00;96994.81;4917019;29;20024;-77
2022/11/22 04:58:11;;;;;;;46.63;16.85;;;;;;;3.45;100.00;97003.44;4901831;29;20028;-76
2022/11/22 05:00:37;;;;;;;62.55;27.85;;;;;;;3.37;100.00;97009.06;4914599;29;20475;-76
2022/11/22 05:03:03;;;;;;;39.72;18.70;;;;;;;3.32;100.00;96999.63;4882568;29;20028;-75
2022/11/22 05:05:33;;;;;;;15.82;7.97;;;;;;;3.26;100.00;97006.84;4907672;29;20408;-76
2022/11/22 05:07:58;;;;;;;19.92;8.05;;;;;;;3.15;100.00;96992.38;4905897;29;20499;-77
2022/11/22 05:10:24;;;;;;;17.65;8.35;;;;;;;3.17;100.00;97001.09;4916345;29;20027;-76
2022/11/22 05:12:49;;;;;;;16.35;7.20;;;;;;;3.08;100.00;97012.03;4888823;29;20043;-76
2022/11/22 05:15:15;;;;;;;20.85;9.88;;;;;;;3.05;100.00;97012.16;4886283;29;20083;-76
2022/11/22 05:17:41;;;;;;;20.77;9.82;;;;;;;2.98;100.00;97005.44;4912329;29;20035;-78
2022/11/22 05:20:07;;;;;;;23.48;11.43;;;;;;;3.05;100.00;97020.09;4888627;29;20113;-77
2022/11/22 05:25:18;;;;;;;20.80;9.32;;;;;;;2.93;100.00;97023.22;4907464;29;20094;-76
2022/11/22 05:27:43;;;;;;;24.92;9.95;;;;;;;2.94;100.00;97031.09;4915717;29;20126;-76
2022/11/22 05:30:09;;;;;;;25.38;12.35;;;;;;;2.96;100.00;97041.59;4878816;29;20039;-76
2022/11/22 05:32:34;;;;;;;22.75;10.35;;;;;;;2.95;100.00;97038.13;4887158;29;20032;-76
2022/11/22 05:35:00;;;;;;;24.95;11.05;;;;;;;3.03;100.00;97051.00;4909274;29;20024;-75
2022/11/22 05:37:26;;;;;;;26.17;11.55;;;;;;;2.97;100.00;97053.91;4906451;29;20111;-78
2022/11/22 05:39:52;;;;;;;22.98;11.63;;;;;;;3.01;100.00;97068.72;4891953;29;20412;-77
2022/11/22 05:42:17;;;;;;;29.65;12.88;;;;;;;3.09;100.00;97071.88;4890781;29;20032;-74
2022/11/22 05:44:43;;;;;;;40.00;18.52;;;;;;;3.18;100.00;97082.09;4897922;29;20613;-74
2022/11/22 05:47:08;;;;;;;49.75;25.65;;;;;;;3.14;100.00;97076.06;4897899;29;20168;-78
2022/11/22 05:49:34;;;;;;;46.85;20.13;;;;;;;3.14;100.00;97070.78;4880458;29;20406;-72
2022/11/22 05:52:00;;;;;;;33.50;16.25;;;;;;;3.09;100.00;97056.91;4881529;29;20372;-72
2022/11/22 05:54:26;;;;;;;29.95;14.20;;;;;;;3.10;100.00;97061.28;4897861;29;20031;-73
2022/11/22 05:56:51;;;;;;;35.70;16.90;;;;;;;3.06;100.00;97048.25;4905037;29;20047;-77
2022/11/22 05:59:17;;;;;;;28.75;15.20;;;;;;;3.16;100.00;97068.09;4881096;29;20059;-74
2022/11/22 06:01:42;;;;;;;32.42;16.52;;;;;;;3.32;100.00;97079.75;4914419;29;20028;-74
2022/11/22 06:04:08;;;;;;;35.15;17.77;;;;;;;3.35;100.00;97079.63;4897527;29;20032;-77
2022/11/22 06:06:33;;;;;;;35.15;16.67;;;;;;;3.47;100.00;97095.00;4881597;29;20044;-77
2022/11/22 06:09:00;;;;;;;32.60;15.45;;;;;;;3.48;100.00;97086.13;4905277;29;20421;-76
2022/11/22 06:11:26;;;;;;;22.20;9.85;;;;;;;3.51;100.00;97088.63;4881407;29;20032;-77
2022/11/22 06:14:04;;;;;;;17.33;8.38;;;;;;;3.45;100.00;97069.50;4878371;29;20038;-76
2022/11/22 06:16:29;;;;;;;23.48;9.55;;;;;;;3.53;100.00;97065.66;4906586;29;20031;-77
2022/11/22 06:18:55;;;;;;;19.35;8.30;;;;;;;3.70;100.00;97064.91;4897315;29;20023;-76
2022/11/22 06:21:23;;;;;;;19.13;8.55;;;;;;;3.91;100.00;97039.34;4900588;29;20027;-76
2022/11/22 06:23:49;;;;;;;20.95;10.85;;;;;;;4.44;100.00;97058.97;4912782;29;21138;-77
2022/11/22 06:26:17;;;;;;;49.67;19.50;;;;;;;6.05;100.00;97093.56;4900654;29;20507;-75
2022/11/22 06:28:44;;;;;;;53.65;22.13;;;;;;;8.07;100.00;97076.84;4900608;29;20032;-76
2022/11/22 06:31:20;;;;;;;48.88;20.83;;;;;;;9.67;100.00;97030.25;4914481;29;20033;-76
2022/11/22 06:33:46;;;;;;;50.65;23.30;;;;;;;10.91;86.72;96991.31;4898849;29;20051;-77
2022/11/22 06:36:13;;;;;;;117.45;47.05;;;;;;;12.14;78.82;96986.47;4882796;29;20485;-76
2022/11/22 06:38:40;;;;;;;47.65;22.38;;;;;;;12.98;71.64;96961.88;4916477;29;20027;-76
2022/11/22 06:41:08;;;;;;;40.63;19.92;;;;;;;13.38;67.60;96925.41;4916008;29;20024;-76
2022/11/22 06:43:34;;;;;;;35.95;19.02;;;;;;;13.90;66.09;96912.97;4904781;29;20020;-76
2022/11/22 06:46:01;;;;;;;37.95;19.65;;;;;;;14.52;62.79;96905.69;4908767;29;20055;-76
2022/11/22 06:48:31;;;;;;;40.17;21.08;;;;;;;14.90;60.73;96886.16;4897396;29;20031;-75
2022/11/22 06:50:58;;;;;;;38.47;18.42;;;;;;;14.80;59.67;96870.94;4905292;29;20475;-77
2022/11/22 06:53:28;;;;;;;24.55;15.18;;;;;;;15.58;57.96;96879.91;4897505;29;20465;-77
2022/11/22 06:56:07;;;;;;;30.30;15.95;;;;;;;15.85;56.51;96864.81;4897468;29;20449;-77
2022/11/22 06:58:33;;;;;;;55.35;27.42;;;;;;;16.50;54.50;96851.28;4881997;29;20056;-76
2022/11/22 07:01:00;;;;;;;38.80;21.23;;;;;;;15.81;55.75;96821.09;4903879;29;20535;-76
2022/11/22 07:03:25;;;;;;;29.17;16.42;;;;;;;16.43;54.37;96833.97;4915805;29;20472;-75
2022/11/22 07:05:51;;;;;;;27.70;15.57;;;;;;;17.09;51.93;96825.69;4894668;29;20027;-76
2022/11/22 07:08:17;;;;;;;18.70;11.88;;;;;;;17.62;48.99;96801.41;4889521;29;20480;-76
2022/11/22 07:10:42;;;;;;;20.02;10.68;;;;;;;18.13;47.99;96804.13;4909513;29;20518;-75
2022/11/22 07:13:08;;;;;;;20.38;12.02;;;;;;;18.48;47.63;96802.28;4900452;29;20039;-77
2022/11/22 07:15:33;;;;;;;19.25;10.90;;;;;;;18.67;46.49;96786.66;4900285;29;20479;-77
2022/11/22 07:17:59;;;;;;;17.17;10.57;;;;;;;18.93;45.22;96776.59;4900272;29;20032;-76
2022/11/22 07:20:24;;;;;;;27.63;14.50;;;;;;;18.73;45.87;96753.50;4910340;29;20067;-78
2022/11/22 07:22:50;;;;;;;23.02;13.07;;;;;;;19.28;45.10;96766.50;4898213;29;20034;-78
2022/11/22 07:25:15;;;;;;;17.33;11.05;;;;;;;19.53;43.74;96743.81;4888812;29;20484;-77
2022/11/22 07:27:41;;;;;;;20.95;11.40;;;;;;;20.22;42.43;96742.31;4899559;29;20040;-78
2022/11/22 07:30:07;;;;;;;29.70;11.88;;;;;;;20.39;42.30;96746.72;4895213;29;20031;-77
2022/11/22 07:32:33;;;;;;;25.58;9.98;;;;;;;20.45;42.03;96724.28;4910011;29;20496;-79
2022/11/22 07:34:58;;;;;;;17.50;8.75;;;;;;;20.55;40.90;96724.91;4886894;29;20088;-78
2022/11/22 07:37:24;;;;;;;13.23;8.50;;;;;;;20.65;41.04;96709.25;4919519;29;20040;-78
2022/11/22 07:39:49;;;;;;;6.30;4.85;;;;;;;20.94;39.81;96708.56;4898365;29;20103;-79
2022/11/22 07:42:15;;;;;;;14.80;9.63;;;;;;;21.00;40.10;96707.84;4901431;29;20023;-79
2022/11/22 07:44:40;;;;;;;13.85;8.65;;;;;;;21.25;40.67;96719.44;4902277;29;20036;-78
2022/11/22 07:47:06;;;;;;;9.10;5.38;;;;;;;21.28;39.02;96694.59;4887501;29;20038;-78
2022/11/22 07:49:31;;;;;;;15.70;9.73;;;;;;;21.64;38.69;96706.50;4884596;29;20044;-79
2022/11/22 07:51:58;;;;;;;27.65;17.38;;;;;;;21.58;39.96;96716.28;4897605;29;20024;-79
2022/11/22 07:54:24;;;;;;;38.55;19.27;;;;;;;22.63;38.57;96720.63;4889986;29;20107;-79
2022/11/22 07:56:49;;;;;;;24.80;14.20;;;;;;;22.74;36.84;96685.72;4900217;29;20044;-79
2022/11/22 07:59:15;;;;;;;18.60;10.38;;;;;;;21.98;37.33;96660.59;4884323;29;20464;-79
2022/11/22 08:01:41;;;;;;;15.23;10.25;;;;;;;22.02;37.22;96651.03;4884145;29;20039;-79
2022/11/22 08:04:06;;;;;;;22.80;14.45;;;;;;;21.87;40.42;96661.00;4892176;29;20514;-79
2022/11/22 08:06:35;;;;;;;12.50;7.43;;;;;;;22.09;37.77;96649.22;4889743;29;20116;-78
2022/11/22 08:09:03;;;;;;;11.20;6.57;;;;;;;22.89;35.79;96657.38;4889259;29;20036;-79
2022/11/22 08:11:29;;;;;;;13.73;7.90;;;;;;;23.64;35.07;96667.78;4891687;29;20051;-81
2022/11/22 08:13:54;;;;;;;11.07;6.03;;;;;;;23.26;34.91;96650.00;4903091;29;20028;-81
2022/11/22 08:16:20;;;;;;;14.10;7.30;;;;;;;23.59;34.57;96648.44;4934997;29;20043;-81
2022/11/22 08:18:47;;;;;;;9.07;5.60;;;;;;;23.76;34.34;96647.06;4886272;29;20035;-81
2022/11/22 08:21:13;;;;;;;8.23;4.40;;;;;;;24.18;33.82;96643.38;4903063;29;20031;-81
2022/11/22 08:23:40;;;;;;;3.63;2.30;;;;;;;24.55;32.92;96636.63;4902966;29;20031;-80
2022/11/22 08:26:07;;;;;;;3.17;2.58;;;;;;;24.79;32.24;96638.84;4895322;29;20038;-81
2022/11/22 08:28:33;;;;;;;6.22;4.10;;;;;;;24.90;32.89;96637.41;4887727;29;20508;-81
2022/11/22 08:31:05;;;;;;;4.90;2.22;;;;;;;25.20;32.36;96642.31;4895113;29;20044;-81
2022/11/22 08:33:31;;;;;;;2.70;1.58;;;;;;;25.88;31.30;96637.50;4893337;29;20477;-81
2022/11/22 08:35:56;;;;;;;1.80;1.48;;;;;;;25.23;31.59;96617.25;4910209;29;20381;-82
2022/11/22 08:38:22;;;;;;;2.72;1.20;;;;;;;24.18;32.23;96607.84;4902588;29;20045;-81
2022/11/22 08:40:47;;;;;;;3.10;1.63;;;;;;;24.05;32.25;96603.16;4904642;29;20043;-89
2022/11/22 08:43:13;;;;;;;2.20;1.45;;;;;;;23.95;33.39;96593.63;4896817;29;20051;-81
2022/11/22 08:45:38;;;;;;;2.10;1.23;;;;;;;22.50;35.06;96575.09;4907452;29;20773;-80
2022/11/22 08:48:04;;;;;;;10.32;5.47;;;;;;;22.11;36.56;96572.75;4894895;29;20612;-79
2022/11/22 08:50:30;;;;;;;1.75;1.60;;;;;;;20.17;37.90;96546.47;4899867;29;20111;-80
2022/11/22 08:52:55;;;;;;;4.20;1.95;;;;;;;19.77;39.82;96578.25;4889399;29;20411;-79
2022/11/22 08:55:21;;;;;;;3.00;1.77;;;;;;;19.96;39.05;96568.84;4918366;29;20035;-80
2022/11/22 08:57:46;;;;;;;4.32;1.60;;;;;;;19.88;40.25;96596.00;4905342;29;20031;-81
2022/11/22 09:00:12;;;;;;;7.95;2.00;;;;;;;20.57;38.97;96603.31;4893521;29;20043;-84
2022/11/22 09:02:38;;;;;;;4.03;2.08;;;;;;;21.99;37.78;96628.75;4889398;29;20130;-85
2022/11/22 09:05:04;;;;;;;7.55;2.97;;;;;;;23.38;35.78;96640.25;4884531;29;20082;-84
2022/11/22 09:07:31;;;;;;;4.28;2.80;;;;;;;24.07;33.71;96616.59;4886404;29;20572;-86
2022/11/22 09:09:56;;;;;;;3.40;2.60;;;;;;;23.57;35.15;96598.59;4908926;29;20032;-85
2022/11/22 09:12:22;;;;;;;4.75;2.58;;;;;;;23.03;36.16;96581.97;4898845;29;20130;-85
2022/11/22 09:14:47;;;;;;;6.55;2.67;;;;;;;22.01;35.93;96551.28;4885986;29;20063;-85
2022/11/22 09:17:13;;;;;;;2.70;2.13;;;;;;;21.48;36.40;96544.22;4895525;29;20095;-85
2022/11/22 09:19:39;;;;;;;10.90;3.05;;;;;;;21.15;39.15;96542.03;4896342;29;20529;-85
2022/11/22 09:22:04;;;;;;;14.23;2.88;;;;;;;20.60;39.40;96532.28;4912345;29;20475;-86
2022/11/22 09:24:30;;;;;;;6.47;3.60;;;;;;;20.67;39.83;96546.84;4885960;29;20036;-84
2022/11/22 09:26:55;;;;;;;6.28;3.30;;;;;;;19.97;40.38;96527.91;4888248;29;20028;-85
2022/11/22 09:29:21;;;;;;;7.53;2.80;;;;;;;18.76;42.80;96517.44;4894104;29;20047;-86
2022/11/22 09:31:46;;;;;;;5.72;2.50;;;;;;;18.35;44.04;96523.84;4914693;29;20164;-84
2022/11/22 09:34:12;;;;;;;4.88;2.53;;;;;;;17.73;43.76;96496.31;4904729;29;20035;-84
2022/11/22 09:36:38;;;;;;;2.72;1.60;;;;;;;17.02;44.25;96489.56;4911405;29;20063;-85
2022/11/22 09:39:03;;;;;;;3.58;1.50;;;;;;;16.58;43.78;96461.78;4909489;29;20027;-85
2022/11/22 09:41:47;;;;;;;3.58;1.90;;;;;;;16.93;44.78;96533.75;4915688;29;20031;-85
2022/11/22 09:44:25;;;;;;;4.43;1.60;;;;;;;16.54;45.98;96528.75;4914999;29;20032;-85
2022/11/22 09:46:51;;;;;;;5.13;2.40;;;;;;;15.91;49.39;96519.00;4921574;29;20039;-85
2022/11/22 09:49:42;;;;;;;6.57;2.67;;;;;;;15.66;49.66;96534.94;4923074;29;20118;-84
2022/11/22 09:52:31;;;;;;;6.35;2.55;;;;;;;15.21;48.67;96517.84;4924287;29;20023;-84
2022/11/22 09:55:01;;;;;;;4.78;2.47;;;;;;;14.97;51.00;96528.28;4903371;29;20034;-85
2022/11/22 09:57:39;;;;;;;6.70;3.40;;;;;;;14.91;51.78;96540.50;4899837;29;20059;-86
2022/11/22 10:00:08;;;;;;;11.52;4.45;;;;;;;15.03;51.50;96560.88;4904642;29;20123;-84
2022/11/22 10:02:36;;;;;;;14.05;5.22;;;;;;;15.16;51.24;96561.38;4900777;29;20151;-84
2022/11/22 10:05:06;;;;;;;20.88;5.75;;;;;;;15.13;53.96;96566.22;4918787;29;20040;-84
2022/11/22 10:07:39;;;;;;;17.77;6.22;;;;;;;15.34;51.85;96574.94;4902360;29;20404;-80
2022/11/22 10:10:12;;;;;;;9.60;5.25;;;;;;;15.48;51.79;96577.16;4899046;29;20024;-79
2022/11/22 10:12:44;;;;;;;21.98;9.07;;;;;;;15.37;51.66;96557.63;4901144;29;20039;-79
2022/11/22 10:15:26;;;;;;;;;;;;;;;15.08;53.93;96557.72;4884577;29;20407;-80
2022/11/22 10:17:53;;;;;;;18.10;8.07;;;;;;;15.22;56.32;96581.50;4903294;29;19915;-80
2022/11/22 10:20:22;;;;;;;21.77;10.63;;;;;;;15.56;53.45;96589.91;4906037;29;20043;-83
2022/11/22 10:22:48;;;;;;;9.88;4.00;;;;;;;15.67;47.91;96554.66;4909356;29;20039;-84
2022/11/22 10:25:53;;;;;;;12.23;5.88;;;;;;;15.52;46.36;96527.34;4895795;29;20031;-85
2022/11/22 10:28:32;;;;;;;6.30;3.50;;;;;;;15.27;45.41;96501.06;4835040;29;20026;-83
2022/11/22 10:31:13;;;;;;;37.10;18.23;;;;;;;15.28;46.56;96521.63;4887111;29;20038;-84
2022/11/22 10:33:56;;;;;;;4.60;1.92;;;;;;;14.46;49.00;96481.09;4896355;29;20594;-84
2022/11/22 10:36:51;;;;;;;10.90;3.55;;;;;;;13.87;50.57;96467.81;4897521;29;20440;-86
2022/11/22 10:39:37;;;;;;;32.92;17.88;;;;;;;14.17;50.61;96507.16;4890877;29;20115;-84
2022/11/22 10:42:13;;;;;;;10.20;5.57;;;;;;;14.20;50.15;96509.56;4909228;29;20028;-86
2022/11/22 10:45:01;;;;;;;6.53;3.40;;;;;;;13.86;51.84;96492.16;4915701;29;20091;-86
2022/11/22 10:47:45;;;;;;;5.45;3.10;;;;;;;13.56;52.88;96472.50;4902808;29;20044;-86
2022/11/22 10:50:29;;;;;;;5.03;2.90;;;;;;;13.70;52.78;96471.22;4890766;29;20043;-89
2022/11/22 10:53:29;;;;;;;4.35;2.80;;;;;;;13.58;53.10;96467.81;4906271;29;20419;-86
2022/11/22 10:56:06;;;;;;;9.73;5.40;;;;;;;13.50;53.78;96472.19;4907760;29;20028;-86
2022/11/22 10:58:54;;;;;;;6.57;3.83;;;;;;;13.56;53.89;96485.94;4911219;29;20508;-85
2022/11/22 11:01:30;;;;;;;5.72;2.72;;;;;;;13.72;52.81;96479.16;4911675;29;20047;-85
2022/11/22 11:03:58;;;;;;;23.45;9.75;;;;;;;13.86;52.71;96486.78;4907248;29;20031;-83
2022/11/22 11:06:40;;;;;;;7.13;3.40;;;;;;;13.98;52.69;96502.63;4911757;29;20035;-80
2022/11/22 11:09:42;;;;;;;10.38;5.57;;;;;;;14.27;52.54;96510.72;4894071;29;20039;-80
2022/11/22 11:12:15;;;;;;;13.07;7.07;;;;;;;14.58;51.59;96517.59;4894060;29;20032;-80
2022/11/22 11:15:03;;;;;;;7.05;3.60;;;;;;;14.52;50.54;96499.34;4899722;29;20036;-79
2022/11/22 11:17:32;;;;;;;11.13;4.15;;;;;;;14.46;49.95;96481.09;4904182;29;20404;-81
2022/11/22 11:20:02;;;;;;;18.10;5.30;;;;;;;14.24;50.02;96476.03;4892704;29;20119;-80
2022/11/22 11:22:31;;;;;;;4.47;2.95;;;;;;;14.13;50.46;96477.00;4890476;29;20075;-84
2022/11/22 11:25:26;;;;;;;16.27;2.20;;;;;;;14.28;50.57;96485.47;4894905;29;20416;-85
2022/11/22 11:27:52;;;;;;;6.65;2.72;;;;;;;14.20;50.46;96463.84;4902559;29;20083;-82
2022/11/22 11:30:17;;;;;;;3.65;2.00;;;;;;;14.26;48.53;96457.91;4891037;29;20080;-81
2022/11/22 11:32:52;;;;;;;4.00;2.20;;;;;;;14.24;49.74;96459.88;4898163;29;20051;-81
2022/11/22 11:35:20;;;;;;;3.95;2.20;;;;;;;13.93;49.44;96434.16;4904199;29;20043;-82
2022/11/22 11:37:45;;;;;;;4.13;2.22;;;;;;;14.03;49.05;96446.59;4891419;29;20065;-81
2022/11/22 11:40:31;;;;;;;7.57;4.10;;;;;;;14.06;48.61;96440.06;4893931;29;20518;-82
2022/11/22 11:43:29;;;;;;;6.22;3.78;;;;;;;13.98;47.57;96427.38;4920279;29;20058;-81
2022/11/22 11:45:54;;;;;;;5.38;2.60;;;;;;;13.92;47.39;96421.72;4886636;29;20048;-81
2022/11/22 11:48:37;;;;;;;9.23;1.63;;;;;;;13.95;46.01;96426.78;4893516;29;20052;-81
2022/11/22 11:51:17;;;;;;;;;;;;;;;13.97;46.36;96424.78;4893441;29;20107;-81
2022/11/22 11:53:56;;;;;;;4.38;2.67;;;;;;;13.98;46.34;96413.91;4905720;29;19919;-80